Logan, Kansas
Current Conditions -  °F | °C
As of 3:53 PM on Monday 26 Jan 2015 (Local Time) from KHLC Reporting Station
Clear Clear  
Wind Chill: 72°   Ceiling: Unl
Heat Index: 72°   Visibility: 10mi
Dew Point: 29°   Wind: 20mph
Humidity: 20%   Direction: 330°NNW
Pressure: 30.04"   Gusts: 30mph
Location:  39.66°N, 99.57°W
Report Text: KHLC 262153Z AUTO 33017G26KT 10SM CLR 22/M02 A3004 RMK AO2 PK WND 32026/2150 SLP170 T02221017
Loading
Personal Weather Stations






























Interactive Weather Map New forecast layout! Learn more

10-Day Weather Forecast

Advertisements
Track Severe Weather on mobile